Time;durP1;ratioP1;P1;durP2;ratioP2;P2;SDS_P1;SDS_P2;PMS_P1;PMS_P2;Temp;Humidity;BMP_temperature;BMP_pressure;BME280_temperature;BME280_humidity;BME280_pressure;Samples;Min_cycle;Max_cycle;Signal;HPM_P1;HPM_P2
2022/03/02 00:02:16;;;;;;;22.25;9.60;;;;;;;0.54;80.19;97471.50;5085336;28;20059;-59
2022/03/02 00:04:43;;;;;;;24.88;10.23;;;;;;;0.45;80.52;97481.47;5086672;28;20075;-58
2022/03/02 00:07:10;;;;;;;29.80;10.38;;;;;;;0.63;80.27;97483.38;5086765;28;20589;-56
2022/03/02 00:09:37;;;;;;;23.88;10.55;;;;;;;0.75;81.02;97481.00;5086289;28;20052;-56
2022/03/02 00:12:04;;;;;;;25.83;10.75;;;;;;;0.63;80.52;97477.94;5086617;28;20573;-55
2022/03/02 00:14:31;;;;;;;29.35;11.82;;;;;;;0.74;80.80;97473.94;5086632;28;20044;-56
2022/03/02 00:16:58;;;;;;;31.20;12.88;;;;;;;0.46;81.02;97422.34;5066792;28;20048;-55
2022/03/02 00:19:25;;;;;;;27.65;11.95;;;;;;;0.88;79.96;97463.88;5066323;28;20048;-58
2022/03/02 00:21:52;;;;;;;29.20;10.90;;;;;;;0.86;80.04;97466.09;5067143;28;20443;-56
2022/03/02 00:24:20;;;;;;;24.90;11.27;;;;;;;0.94;80.11;97462.69;5067128;28;20105;-58
2022/03/02 00:26:47;;;;;;;29.15;12.27;;;;;;;0.90;80.48;97461.66;5066758;28;20131;-58
2022/03/02 00:29:14;;;;;;;25.27;10.90;;;;;;;0.95;79.64;97469.75;5066907;28;20569;-56
2022/03/02 00:31:40;;;;;;;23.50;10.50;;;;;;;0.93;79.88;97450.13;5065798;28;20052;-56
2022/03/02 00:34:07;;;;;;;44.28;17.90;;;;;;;0.87;80.03;97459.53;5066190;28;20349;-57
2022/03/02 00:36:34;;;;;;;48.78;20.17;;;;;;;0.85;80.36;97445.41;5064510;28;20052;-55
2022/03/02 00:39:00;;;;;;;40.90;19.38;;;;;;;0.83;81.24;97441.34;5064705;28;20503;-57
2022/03/02 00:41:27;;;;;;;39.00;17.42;;;;;;;0.85;82.04;97439.13;5064939;28;20510;-57
2022/03/02 00:43:55;;;;;;;37.50;16.88;;;;;;;0.89;82.95;97446.41;5065642;28;20440;-57
2022/03/02 00:46:29;;;;;;;37.10;15.88;;;;;;;1.00;83.51;97431.50;5064741;28;20563;-55
2022/03/02 00:48:56;;;;;;;37.95;15.52;;;;;;;0.87;83.71;97402.25;5065975;28;20044;-54
2022/03/02 00:51:23;;;;;;;47.88;18.17;;;;;;;0.92;83.50;97404.91;5063630;28;20088;-58
2022/03/02 00:53:52;;;;;;;46.15;17.75;;;;;;;1.07;83.49;97428.38;5064191;28;20068;-56
2022/03/02 00:56:22;;;;;;;42.30;16.15;;;;;;;1.21;83.24;97431.94;5065409;28;20053;-55
2022/03/02 00:58:49;;;;;;;39.13;16.40;;;;;;;0.76;83.19;97370.03;5064817;28;20059;-59
2022/03/02 01:01:16;;;;;;;36.83;16.27;;;;;;;1.25;82.74;97428.28;5065863;28;20100;-56
2022/03/02 01:03:43;;;;;;;34.90;14.50;;;;;;;0.23;83.74;97380.44;5065405;28;20082;-57
2022/03/02 01:06:10;;;;;;;37.50;15.48;;;;;;;0.10;88.35;97402.97;5064302;28;20072;-57
2022/03/02 01:08:36;;;;;;;33.13;13.82;;;;;;;0.56;87.13;97406.63;5065675;28;20054;-56
2022/03/02 01:11:04;;;;;;;34.10;13.90;;;;;;;0.71;86.26;97409.06;5064760;28;20143;-59
2022/03/02 01:13:30;;;;;;;22.35;9.98;;;;;;;0.70;85.43;97407.47;5064020;28;20078;-59
2022/03/02 01:15:57;;;;;;;28.58;11.20;;;;;;;0.65;83.87;97410.28;5076444;28;20510;-57
2022/03/02 01:18:24;;;;;;;34.10;14.25;;;;;;;0.75;83.56;97401.94;5085904;28;20490;-55
2022/03/02 01:20:51;;;;;;;26.55;9.95;;;;;;;0.77;82.95;97402.47;5083948;28;20063;-57
2022/03/02 01:23:18;;;;;;;21.70;11.30;;;;;;;0.80;82.76;97401.84;5083876;28;20059;-57
2022/03/02 01:25:45;;;;;;;22.80;10.10;;;;;;;0.90;82.14;97396.19;5083723;28;20048;-58
2022/03/02 01:28:11;;;;;;;25.38;11.55;;;;;;;0.81;82.17;97387.09;5085245;28;20506;-58
2022/03/02 01:30:38;;;;;;;22.08;10.40;;;;;;;0.52;82.26;97336.66;5085513;28;20052;-56
2022/03/02 01:33:05;;;;;;;25.80;10.88;;;;;;;0.87;81.87;97391.34;5084800;28;20063;-56
2022/03/02 01:35:31;;;;;;;27.52;11.07;;;;;;;0.93;81.34;97389.38;5085618;28;20052;-56
2022/03/02 01:37:58;;;;;;;31.70;12.25;;;;;;;0.90;80.80;97385.31;5085686;28;20052;-57
2022/03/02 01:40:25;;;;;;;31.52;13.27;;;;;;;0.88;81.31;97395.72;5083588;28;20227;-56
2022/03/02 01:42:51;;;;;;;31.52;13.88;;;;;;;0.94;81.71;97380.88;5085150;28;20060;-58
2022/03/02 01:45:21;;;;;;;31.80;13.85;;;;;;;1.04;80.43;97380.66;5085246;28;20048;-59
2022/03/02 01:47:48;;;;;;;43.00;18.08;;;;;;;0.92;80.20;97380.38;5083620;28;20071;-59
2022/03/02 01:50:15;;;;;;;35.38;13.95;;;;;;;0.65;81.32;97374.84;5084839;28;20055;-56
2022/03/02 01:52:42;;;;;;;30.50;11.95;;;;;;;0.56;81.34;97356.75;5084855;28;20065;-57
2022/03/02 01:55:10;;;;;;;28.70;11.63;;;;;;;0.55;81.22;97372.31;5083398;28;20513;-56
2022/03/02 01:57:37;;;;;;;26.88;10.27;;;;;;;0.47;81.56;97370.25;5083762;28;20044;-57
2022/03/02 02:00:07;;;;;;;31.95;9.93;;;;;;;0.45;81.49;97364.28;5084226;28;20518;-57
2022/03/02 02:02:34;;;;;;;27.35;10.35;;;;;;;-0.01;81.07;97308.94;5083200;28;20056;-58
2022/03/02 02:05:01;;;;;;;31.55;11.70;;;;;;;-0.34;81.71;97266.44;5082215;28;20107;-58
2022/03/02 02:07:27;;;;;;;26.33;12.13;;;;;;;0.18;83.10;97353.28;5084558;28;20073;-56
2022/03/02 02:09:56;;;;;;;26.23;11.57;;;;;;;0.08;83.45;97361.59;5084303;28;20377;-56
2022/03/02 02:12:23;;;;;;;24.50;9.18;;;;;;;0.03;81.09;97321.66;5083920;28;20059;-56
2022/03/02 02:14:50;;;;;;;22.05;9.77;;;;;;;-0.46;81.07;97252.50;5082770;28;20068;-55
2022/03/02 02:17:17;;;;;;;24.70;9.88;;;;;;;0.04;81.02;97338.81;5062287;28;20052;-55
2022/03/02 02:19:44;;;;;;;25.85;10.65;;;;;;;-0.05;81.62;97349.56;5064508;28;20056;-57
2022/03/02 02:22:11;;;;;;;83.30;29.33;;;;;;;-0.05;81.82;97335.16;5064039;28;20048;-56
2022/03/02 02:24:37;;;;;;;30.38;13.82;;;;;;;-0.17;81.90;97334.78;5064113;28;20052;-56
2022/03/02 02:27:04;;;;;;;18.35;7.25;;;;;;;-1.11;87.42;97337.63;5064042;28;20052;-55
2022/03/02 02:29:34;;;;;;;26.35;9.75;;;;;;;-1.32;90.97;97342.47;5064024;28;20048;-55
2022/03/02 02:32:01;;;;;;;21.10;8.02;;;;;;;-1.66;93.67;97315.38;5063950;28;20052;-54
2022/03/02 02:34:28;;;;;;;18.83;8.98;;;;;;;-1.52;95.10;97343.47;5064130;28;20075;-55
2022/03/02 02:36:55;;;;;;;29.15;11.68;;;;;;;-1.46;94.92;97343.44;5063224;28;20044;-56
2022/03/02 02:39:24;;;;;;;34.47;10.82;;;;;;;-1.52;94.74;97348.91;5064224;28;20535;-57
2022/03/02 02:41:51;;;;;;;23.02;9.93;;;;;;;-1.86;94.62;97288.41;5063909;28;20055;-57
2022/03/02 02:44:18;;;;;;;24.38;8.95;;;;;;;-2.07;94.04;97270.69;5063902;28;20525;-57
2022/03/02 02:46:45;;;;;;;21.58;9.43;;;;;;;-1.47;94.55;97339.09;5064090;28;20430;-56
2022/03/02 02:49:12;;;;;;;28.60;11.68;;;;;;;-1.28;94.40;97334.56;5063816;28;20052;-54
2022/03/02 02:51:38;;;;;;;27.77;9.73;;;;;;;-1.71;93.22;97255.69;5063661;28;20465;-57
2022/03/02 02:54:05;;;;;;;19.02;8.25;;;;;;;-1.35;92.93;97301.47;5063852;28;20048;-55
2022/03/02 02:56:32;;;;;;;22.52;8.82;;;;;;;-1.14;91.78;97332.78;5063813;28;20049;-56
2022/03/02 02:58:58;;;;;;;18.52;8.50;;;;;;;-1.71;92.13;97231.25;5063835;28;20550;-56
2022/03/02 03:01:25;;;;;;;21.42;8.30;;;;;;;-1.10;91.80;97322.94;5063236;28;20048;-56
2022/03/02 03:03:52;;;;;;;19.38;8.55;;;;;;;-1.03;91.28;97312.53;5062911;28;20106;-57
2022/03/02 03:06:19;;;;;;;35.28;13.50;;;;;;;-1.00;91.23;97309.25;5063551;28;20442;-54
2022/03/02 03:08:45;;;;;;;27.20;11.98;;;;;;;-1.37;91.33;97246.63;5063158;28;20540;-55
2022/03/02 03:11:12;;;;;;;34.78;14.80;;;;;;;-0.90;90.51;97306.41;5063249;28;20052;-56
2022/03/02 03:13:39;;;;;;;50.28;21.67;;;;;;;-0.95;89.11;97330.94;5061907;28;20056;-55
2022/03/02 03:16:05;;;;;;;44.22;18.15;;;;;;;-1.05;89.47;97312.00;5074745;28;20055;-54
2022/03/02 03:18:32;;;;;;;40.13;15.07;;;;;;;-1.17;89.53;97312.41;5082252;28;20048;-56
2022/03/02 03:20:59;;;;;;;46.45;17.90;;;;;;;-1.25;90.25;97307.63;5082073;28;20048;-56
2022/03/02 03:23:27;;;;;;;43.58;16.52;;;;;;;-1.23;89.66;97307.34;5083398;28;20052;-56
2022/03/02 03:25:53;;;;;;;22.83;10.85;;;;;;;-1.20;88.92;97304.03;5083598;28;20048;-57
2022/03/02 03:28:20;;;;;;;24.48;10.25;;;;;;;-2.17;88.79;97156.03;5083366;28;20048;-54
2022/03/02 03:30:47;;;;;;;22.38;9.68;;;;;;;-1.30;89.13;97296.00;5083099;28;20063;-55
2022/03/02 03:33:14;;;;;;;19.20;8.82;;;;;;;-1.92;89.39;97229.84;5083593;28;20118;-56
2022/03/02 03:35:40;;;;;;;45.45;17.15;;;;;;;-1.43;88.81;97296.69;5082154;28;20048;-55
2022/03/02 03:38:07;;;;;;;82.32;31.48;;;;;;;-2.41;88.98;97145.13;5083566;28;20086;-55
2022/03/02 03:40:34;;;;;;;99.82;36.85;;;;;;;-1.42;89.82;97292.88;5083496;28;20055;-54
2022/03/02 03:43:01;;;;;;;127.95;51.00;;;;;;;-1.92;88.90;97208.13;5083231;28;20139;-54
2022/03/02 03:45:27;;;;;;;42.45;19.27;;;;;;;-1.36;88.82;97291.72;5081845;28;20059;-54
2022/03/02 03:47:54;;;;;;;29.10;12.65;;;;;;;-1.41;89.02;97289.06;5082131;28;20048;-57
2022/03/02 03:50:21;;;;;;;31.75;12.20;;;;;;;-1.39;89.02;97286.88;5081822;28;20063;-54
2022/03/02 03:52:48;;;;;;;32.78;12.95;;;;;;;-1.43;88.56;97291.25;5081765;28;20048;-54
2022/03/02 03:55:15;;;;;;;34.20;11.70;;;;;;;-1.76;90.45;97293.75;5081611;28;20070;-56
2022/03/02 03:57:42;;;;;;;24.67;10.57;;;;;;;-1.88;92.17;97287.88;5083438;28;20050;-57
2022/03/02 04:00:14;;;;;;;34.22;12.35;;;;;;;-1.69;92.17;97305.06;5083472;28;20054;-55
2022/03/02 04:02:41;;;;;;;31.70;12.15;;;;;;;-1.57;90.95;97308.25;5081761;28;20044;-56
2022/03/02 04:05:09;;;;;;;26.63;10.32;;;;;;;-1.59;90.04;97299.56;5083161;28;20425;-56
2022/03/02 04:07:36;;;;;;;31.35;10.88;;;;;;;-1.58;90.08;97301.16;5083094;28;20055;-56
2022/03/02 04:10:05;;;;;;;48.05;19.40;;;;;;;-1.88;90.53;97258.03;5082594;28;20052;-56
2022/03/02 04:12:32;;;;;;;50.45;20.20;;;;;;;-1.63;90.24;97298.50;5081607;28;20067;-57
2022/03/02 04:14:59;;;;;;;56.92;20.60;;;;;;;-1.62;89.88;97300.13;5079816;28;20058;-57
2022/03/02 04:17:25;;;;;;;40.85;15.07;;;;;;;-1.93;89.70;97258.06;5062919;28;20052;-55
2022/03/02 04:19:52;;;;;;;37.97;14.73;;;;;;;-2.05;89.52;97230.50;5063235;28;20135;-55
2022/03/02 04:22:19;;;;;;;44.95;16.40;;;;;;;-2.08;88.92;97247.38;5061741;28;20063;-55
2022/03/02 04:24:46;;;;;;;36.88;15.48;;;;;;;-1.82;88.99;97288.66;5063452;28;20070;-56
2022/03/02 04:27:13;;;;;;;28.80;12.68;;;;;;;-1.91;89.32;97280.31;5063916;28;20048;-55
2022/03/02 04:29:41;;;;;;;26.10;9.90;;;;;;;-1.83;87.58;97290.56;5066018;28;20060;-56
2022/03/02 04:32:08;;;;;;;28.15;11.38;;;;;;;-1.90;87.18;97294.69;5066133;28;20537;-56
2022/03/02 04:34:35;;;;;;;27.20;10.57;;;;;;;-1.91;86.56;97291.16;5066094;28;20064;-56
2022/03/02 04:37:02;;;;;;;26.20;10.90;;;;;;;-2.10;86.33;97265.81;5064702;28;20048;-56
2022/03/02 04:39:28;;;;;;;29.70;11.77;;;;;;;-1.94;87.58;97301.78;5065939;28;20056;-57
2022/03/02 04:41:55;;;;;;;29.58;9.90;;;;;;;-1.95;88.14;97301.00;5065937;28;20518;-55
2022/03/02 04:44:22;;;;;;;22.63;9.75;;;;;;;-2.07;88.75;97281.53;5066238;28;20056;-55
2022/03/02 04:46:51;;;;;;;17.45;7.35;;;;;;;-2.09;88.77;97283.75;5066272;28;20048;-57
2022/03/02 04:49:19;;;;;;;27.55;10.50;;;;;;;-2.53;87.59;97217.88;5065863;28;20052;-56
2022/03/02 04:51:47;;;;;;;38.22;12.93;;;;;;;-1.96;88.49;97285.78;5065478;28;20588;-56
2022/03/02 04:57:04;;;;;;;28.13;11.50;;;;;;;-1.89;87.65;97302.56;5058553;28;20052;-54
2022/03/02 04:59:31;;;;;;;22.58;11.27;;;;;;;-1.98;86.86;97298.84;5064018;28;20608;-56
2022/03/02 05:01:59;;;;;;;26.23;10.10;;;;;;;-1.93;87.39;97298.78;5065378;28;20485;-58
2022/03/02 05:04:26;;;;;;;24.23;8.88;;;;;;;-1.83;86.15;97297.88;5065947;28;20051;-56
2022/03/02 05:06:53;;;;;;;20.17;8.95;;;;;;;-1.91;85.45;97274.88;5065474;28;20048;-57
2022/03/02 05:09:20;;;;;;;22.20;9.20;;;;;;;-1.76;85.48;97288.34;5064870;28;20064;-57
2022/03/02 05:11:47;;;;;;;24.92;10.95;;;;;;;-1.69;85.29;97294.22;5065285;28;20609;-56
2022/03/02 05:14:13;;;;;;;26.63;11.27;;;;;;;-1.63;84.53;97287.63;5065402;28;20056;-56
2022/03/02 05:16:40;;;;;;;27.80;11.90;;;;;;;-1.76;84.63;97292.94;5080479;28;20047;-56
2022/03/02 05:19:07;;;;;;;27.40;11.95;;;;;;;-1.68;85.94;97289.59;5085533;28;20048;-56
2022/03/02 05:21:33;;;;;;;15.50;7.15;;;;;;;-2.28;85.49;97198.72;5085189;28;20498;-56
2022/03/02 05:24:00;;;;;;;11.98;5.90;;;;;;;-2.21;85.85;97203.78;5085851;28;20048;-55
2022/03/02 05:26:27;;;;;;;15.57;6.93;;;;;;;-1.57;83.66;97291.94;5085830;28;20044;-55
2022/03/02 05:28:53;;;;;;;23.30;9.00;;;;;;;-1.62;82.97;97272.16;5085121;28;20065;-56
2022/03/02 05:31:21;;;;;;;18.40;8.07;;;;;;;-1.48;83.51;97294.00;5085164;28;20043;-55
2022/03/02 05:33:48;;;;;;;25.45;10.40;;;;;;;-2.39;82.66;97142.94;5085177;28;20121;-54
2022/03/02 05:36:15;;;;;;;43.10;15.90;;;;;;;-1.35;81.79;97293.34;5085241;28;20047;-56
2022/03/02 05:38:41;;;;;;;56.80;22.02;;;;;;;-1.31;82.57;97294.38;5084544;28;20056;-57
2022/03/02 05:41:08;;;;;;;37.40;16.83;;;;;;;-1.28;82.05;97293.81;5084760;28;20502;-55
2022/03/02 05:43:35;;;;;;;33.88;17.08;;;;;;;-1.20;82.09;97295.91;5084828;28;20051;-55
2022/03/02 05:46:02;;;;;;;39.25;16.55;;;;;;;-1.25;81.72;97266.88;5084821;28;20055;-55
2022/03/02 05:48:29;;;;;;;42.65;18.98;;;;;;;-0.85;81.09;97287.28;5084721;28;20055;-55
2022/03/02 05:50:56;;;;;;;49.40;21.98;;;;;;;-0.77;80.89;97289.34;5084838;28;20048;-56
2022/03/02 05:53:22;;;;;;;47.67;22.65;;;;;;;-0.62;81.39;97298.16;5077478;28;20074;-55
2022/03/02 05:55:49;;;;;;;67.78;30.27;;;;;;;-0.45;80.63;97286.75;5064510;28;20098;-56
2022/03/02 05:58:16;;;;;;;56.03;25.30;;;;;;;-0.32;79.65;97296.91;5064627;28;20053;-55
2022/03/02 06:00:43;;;;;;;63.90;27.52;;;;;;;-0.17;79.04;97291.22;5064513;28;20045;-57
2022/03/02 06:03:10;;;;;;;68.30;30.83;;;;;;;-0.07;78.51;97318.28;5064732;28;20064;-56
2022/03/02 06:05:36;;;;;;;78.28;33.13;;;;;;;0.19;78.50;97303.16;5064340;28;20067;-55
2022/03/02 06:08:03;;;;;;;52.95;23.27;;;;;;;-0.07;78.00;97253.78;5064112;28;20052;-56
2022/03/02 06:10:30;;;;;;;50.20;24.10;;;;;;;0.27;77.55;97277.97;5064134;28;20511;-56
2022/03/02 06:12:57;;;;;;;51.83;21.92;;;;;;;0.47;77.21;97293.97;5062760;28;20056;-57
2022/03/02 06:15:24;;;;;;;58.55;26.10;;;;;;;0.57;76.34;97288.31;5065949;28;20043;-55
2022/03/02 06:17:51;;;;;;;67.93;31.65;;;;;;;0.73;76.46;97289.66;5084341;28;20056;-55
2022/03/02 06:20:18;;;;;;;61.60;27.88;;;;;;;0.77;76.15;97290.69;5083032;28;20063;-57
2022/03/02 06:22:46;;;;;;;50.17;22.75;;;;;;;0.91;75.97;97287.97;5084293;28;20047;-57
2022/03/02 06:25:13;;;;;;;30.30;14.57;;;;;;;0.64;75.44;97249.78;5084626;28;20058;-56
2022/03/02 06:27:40;;;;;;;26.58;13.60;;;;;;;0.34;75.38;97207.56;5082665;28;20060;-57
2022/03/02 06:30:08;;;;;;;32.08;15.10;;;;;;;0.66;75.17;97259.28;5084097;28;20055;-55
2022/03/02 06:32:34;;;;;;;50.30;21.48;;;;;;;0.88;74.27;97302.19;5084308;28;20044;-55
2022/03/02 06:35:01;;;;;;;43.90;19.38;;;;;;;0.96;75.15;97291.41;5084181;28;20040;-56
2022/03/02 06:37:33;;;;;;;34.90;13.82;;;;;;;1.07;74.11;97300.19;5084349;28;20537;-57
2022/03/02 06:40:06;;;;;;;26.80;11.13;;;;;;;1.04;73.89;97301.59;5084571;28;20105;-59
2022/03/02 06:42:51;;;;;;;39.38;15.77;;;;;;;1.01;74.29;97299.47;5082853;28;20070;-57
2022/03/02 06:45:42;;;;;;;28.63;12.80;;;;;;;1.08;74.94;97294.44;5082374;28;20068;-56
2022/03/02 06:48:18;;;;;;;30.60;13.63;;;;;;;0.98;75.36;97256.44;5083884;28;20063;-55
2022/03/02 06:50:49;;;;;;;26.40;12.35;;;;;;;1.30;75.16;97289.06;5083587;28;20514;-57
2022/03/02 06:53:16;;;;;;;25.50;12.13;;;;;;;1.30;74.88;97267.22;5058098;28;20052;-58
2022/03/02 06:55:44;;;;;;;29.40;12.88;;;;;;;1.44;74.74;97286.28;5062268;28;20403;-56
2022/03/02 06:58:12;;;;;;;36.72;14.68;;;;;;;1.65;72.89;97286.66;5061201;28;20059;-58
2022/03/02 07:00:39;;;;;;;38.08;15.50;;;;;;;1.29;74.29;97257.44;5062905;28;20155;-60
2022/03/02 07:03:14;;;;;;;37.45;14.43;;;;;;;0.83;74.52;97204.97;5062721;28;20045;-60
2022/03/02 07:05:41;;;;;;;41.03;15.05;;;;;;;1.77;73.59;97278.75;5060793;28;20044;-59
2022/03/02 07:08:08;;;;;;;29.92;13.52;;;;;;;1.86;72.47;97274.16;5060678;28;20059;-58
2022/03/02 07:10:36;;;;;;;27.90;12.75;;;;;;;1.62;71.85;97249.06;5062418;28;20056;-56
2022/03/02 07:13:05;;;;;;;26.40;11.82;;;;;;;0.95;74.53;97284.31;5061915;28;20106;-58
2022/03/02 07:15:34;;;;;;;30.95;12.07;;;;;;;0.97;75.66;97282.09;5062561;28;20063;-59
2022/03/02 07:18:03;;;;;;;31.63;12.82;;;;;;;1.10;75.24;97229.47;5061617;28;20128;-58
2022/03/02 07:20:30;;;;;;;34.53;15.38;;;;;;;1.27;75.08;97226.91;5063324;28;20115;-59
2022/03/02 07:22:58;;;;;;;38.50;15.90;;;;;;;1.70;72.92;97278.34;5061320;28;20053;-57
2022/03/02 07:25:29;;;;;;;26.88;11.85;;;;;;;1.69;73.71;97283.03;5062791;28;20048;-56
2022/03/02 07:27:57;;;;;;;25.17;11.60;;;;;;;1.71;74.20;97272.59;5063066;28;20251;-57
2022/03/02 07:30:26;;;;;;;28.50;11.98;;;;;;;1.53;73.36;97227.94;5061901;28;20041;-61
2022/03/02 07:33:01;;;;;;;25.00;11.00;;;;;;;2.21;71.94;97246.81;5060849;28;20064;-61
2022/03/02 07:35:31;;;;;;;20.42;9.73;;;;;;;2.24;70.21;97272.69;5061631;28;20060;-57
2022/03/02 07:37:59;;;;;;;16.45;8.27;;;;;;;1.50;72.28;97250.41;5059060;28;20059;-57
2022/03/02 07:40:26;;;;;;;13.88;8.30;;;;;;;1.62;72.56;97265.44;5060318;28;20056;-56
2022/03/02 07:42:53;;;;;;;19.27;8.65;;;;;;;0.89;73.07;97127.41;5060818;28;20056;-59
2022/03/02 07:45:19;;;;;;;33.85;12.48;;;;;;;-0.10;74.47;97027.63;5061457;28;20502;-58
2022/03/02 07:47:47;;;;;;;19.80;8.38;;;;;;;1.25;75.83;97259.16;5060835;28;20245;-58
2022/03/02 07:50:15;;;;;;;18.30;8.35;;;;;;;-0.49;74.49;96902.19;5061762;28;20135;-58
2022/03/02 07:52:53;;;;;;;27.25;9.38;;;;;;;1.75;75.07;97253.66;5059854;28;20132;-59
2022/03/02 07:55:20;;;;;;;15.40;7.20;;;;;;;2.10;73.84;97255.56;5062491;28;20048;-55
2022/03/02 07:57:55;;;;;;;18.67;6.65;;;;;;;2.54;72.46;97311.00;5061944;28;20062;-59
2022/03/02 08:00:25;;;;;;;14.02;7.00;;;;;;;2.93;70.20;97247.31;5059867;28;20581;-59
2022/03/02 08:02:55;;;;;;;15.82;7.00;;;;;;;2.52;68.29;97137.47;5065495;28;20110;-57
2022/03/02 08:05:24;;;;;;;15.60;7.60;;;;;;;3.63;65.73;97239.75;5065701;28;20044;-57
2022/03/02 08:07:51;;;;;;;15.23;7.28;;;;;;;3.67;63.94;97202.38;5065478;28;20056;-58
2022/03/02 08:10:18;;;;;;;15.68;7.13;;;;;;;4.05;64.15;97230.72;5063244;28;20144;-57
2022/03/02 08:12:46;;;;;;;17.77;7.75;;;;;;;4.06;64.15;97185.75;5063890;28;20040;-57
2022/03/02 08:15:13;;;;;;;17.05;7.03;;;;;;;4.05;61.13;97143.03;5064391;28;20145;-59
2022/03/02 08:17:43;;;;;;;14.93;7.75;;;;;;;4.41;62.12;97222.94;5065295;28;20075;-58
2022/03/02 08:20:10;;;;;;;15.10;7.18;;;;;;;4.82;59.60;97218.78;5063189;28;20059;-57
2022/03/02 08:22:48;;;;;;;20.45;8.18;;;;;;;5.15;59.19;97206.84;5064428;28;20044;-57
2022/03/02 08:25:17;;;;;;;19.10;8.07;;;;;;;5.49;58.95;97211.28;5066154;28;20052;-56
2022/03/02 08:27:44;;;;;;;16.00;7.63;;;;;;;5.44;57.35;97195.81;5065016;28;20054;-55
2022/03/02 08:30:13;;;;;;;13.68;6.78;;;;;;;5.35;57.32;97218.97;5065738;28;20065;-56
2022/03/02 08:32:45;;;;;;;15.15;7.35;;;;;;;5.68;55.86;97208.91;5064031;28;20500;-58
2022/03/02 08:35:12;;;;;;;11.63;6.35;;;;;;;5.68;55.25;97217.13;5066025;28;20049;-57
2022/03/02 08:37:40;;;;;;;15.32;7.15;;;;;;;5.96;55.42;97207.25;5065117;28;20052;-58
2022/03/02 08:40:08;;;;;;;12.70;7.05;;;;;;;6.12;53.68;97202.72;5066037;28;20053;-57
2022/03/02 08:42:35;;;;;;;13.15;7.13;;;;;;;5.99;53.48;97201.88;5044037;28;20049;-58
2022/03/02 08:45:03;;;;;;;16.45;7.22;;;;;;;5.89;53.33;97169.31;5050449;28;20056;-60
2022/03/02 08:47:31;;;;;;;14.65;7.72;;;;;;;6.15;52.73;97160.81;5064124;28;20045;-59
2022/03/02 08:49:58;;;;;;;7.43;3.80;;;;;;;4.53;55.35;97181.94;5064328;28;20056;-58
2022/03/02 08:52:27;;;;;;;17.70;7.60;;;;;;;5.00;56.09;97184.59;5064234;28;20374;-59
2022/03/02 08:54:56;;;;;;;13.95;5.75;;;;;;;4.91;53.61;97137.19;5062416;28;20056;-57
2022/03/02 08:57:23;;;;;;;15.07;7.55;;;;;;;5.05;54.58;97104.81;5065057;28;20055;-56
2022/03/02 08:59:52;;;;;;;11.60;4.97;;;;;;;5.60;52.82;97215.25;5062511;28;20098;-56
2022/03/02 09:02:22;;;;;;;10.98;5.07;;;;;;;5.87;52.72;97165.28;5062499;28;20048;-60
2022/03/02 09:04:49;;;;;;;13.38;5.70;;;;;;;6.04;52.68;97159.63;5063285;28;20457;-56
2022/03/02 09:07:20;;;;;;;8.32;4.95;;;;;;;5.74;52.68;97103.13;5059765;28;20067;-58
2022/03/02 09:09:47;;;;;;;18.33;6.35;;;;;;;6.00;52.81;97150.44;5063300;28;20063;-57
2022/03/02 09:12:15;;;;;;;27.17;7.35;;;;;;;6.25;50.83;97138.38;5063632;28;20596;-59
2022/03/02 09:14:42;;;;;;;9.77;5.13;;;;;;;4.97;52.70;97102.94;5063316;28;20644;-58
2022/03/02 09:17:09;;;;;;;7.82;3.63;;;;;;;5.78;51.12;97143.34;5061412;28;20058;-58
2022/03/02 09:19:37;;;;;;;7.97;4.38;;;;;;;5.92;50.93;97140.34;5063171;28;20054;-56
2022/03/02 09:22:04;;;;;;;6.10;2.42;;;;;;;5.51;51.69;97134.84;5064293;28;20048;-58
2022/03/02 09:24:31;;;;;;;9.00;4.70;;;;;;;5.15;52.24;97132.72;5064375;28;20503;-59
2022/03/02 09:26:58;;;;;;;7.57;3.50;;;;;;;5.70;50.93;97100.28;5063200;28;20059;-58
2022/03/02 09:29:30;;;;;;;8.82;4.28;;;;;;;5.38;48.35;96968.38;5064158;28;20124;-61
2022/03/02 09:31:58;;;;;;;6.97;3.72;;;;;;;6.23;48.47;97129.66;5064083;28;20071;-60
2022/03/02 09:34:27;;;;;;;5.03;3.40;;;;;;;6.06;48.24;97074.84;5064302;28;20062;-58
2022/03/02 09:36:56;;;;;;;6.93;3.53;;;;;;;5.67;49.23;97056.16;5064340;28;20054;-60
2022/03/02 09:39:23;;;;;;;8.85;3.15;;;;;;;6.69;49.21;97071.47;5063697;28;20440;-58
2022/03/02 09:41:59;;;;;;;7.90;4.18;;;;;;;7.37;47.29;97095.25;5064124;28;20052;-56
2022/03/02 09:44:40;;;;;;;8.50;3.60;;;;;;;7.72;44.59;97132.13;5062371;28;20052;-57
2022/03/02 09:47:09;;;;;;;6.20;3.63;;;;;;;7.20;43.14;97021.16;5050286;28;20052;-60
2022/03/02 09:49:41;;;;;;;5.38;3.53;;;;;;;7.79;43.00;97098.47;5064054;28;20056;-57
2022/03/02 09:52:12;;;;;;;5.95;3.33;;;;;;;7.80;42.92;97090.97;5063590;28;20048;-57
2022/03/02 09:54:43;;;;;;;4.63;2.72;;;;;;;7.86;42.81;97081.28;5062739;28;20153;-60
2022/03/02 09:57:09;;;;;;;5.75;3.25;;;;;;;8.10;43.10;97070.13;5063023;28;20443;-60
2022/03/02 09:59:39;;;;;;;11.35;4.40;;;;;;;6.78;43.77;96782.34;5063531;28;20461;-60
2022/03/02 10:02:08;;;;;;;8.60;3.80;;;;;;;9.18;42.13;97077.63;5062388;28;20632;-58
2022/03/02 10:04:35;;;;;;;6.18;3.13;;;;;;;8.77;41.56;97073.47;5063661;28;20059;-59
2022/03/02 10:10:03;;;;;;;8.90;4.70;;;;;;;7.93;42.71;97064.94;5063728;28;20056;-58
2022/03/02 10:12:32;;;;;;;5.00;2.58;;;;;;;6.60;44.37;97062.53;5063158;28;20071;-60
2022/03/02 10:14:59;;;;;;;6.55;3.30;;;;;;;7.00;45.01;97052.41;5064299;28;20067;-58
2022/03/02 10:17:35;;;;;;;5.20;3.05;;;;;;;7.51;43.43;97053.53;5073640;28;20048;-58
2022/03/02 10:20:11;;;;;;;11.77;3.95;;;;;;;8.19;43.50;97046.75;5082785;28;20085;-58
2022/03/02 10:22:40;;;;;;;5.55;3.55;;;;;;;8.49;41.85;97036.09;5084034;28;20510;-59
2022/03/02 10:25:11;;;;;;;6.95;3.67;;;;;;;8.41;42.42;97032.34;5083516;28;20113;-58
2022/03/02 10:27:59;;;;;;;15.77;6.88;;;;;;;8.46;42.51;97028.53;5084396;28;20048;-59
2022/03/02 10:30:36;;;;;;;5.47;3.13;;;;;;;8.75;40.94;97025.31;5084280;28;20143;-58
2022/03/02 10:33:24;;;;;;;14.32;6.63;;;;;;;8.63;41.52;96995.03;5084127;28;20139;-60
2022/03/02 10:35:51;;;;;;;7.25;4.50;;;;;;;9.35;40.20;97016.41;5083856;28;20050;-59
2022/03/02 10:38:30;;;;;;;4.55;3.10;;;;;;;9.02;40.12;96985.69;5083639;28;20052;-59
2022/03/02 10:41:00;;;;;;;6.15;3.00;;;;;;;9.08;39.90;96945.53;5083671;28;20581;-58
2022/03/02 10:43:38;;;;;;;7.38;3.13;;;;;;;9.11;40.02;97000.06;5083670;28;20518;-59
2022/03/02 10:46:07;;;;;;;5.47;3.10;;;;;;;7.63;42.99;96988.13;5083928;28;20070;-58
2022/03/02 10:48:44;;;;;;;6.55;3.78;;;;;;;8.31;41.91;96988.75;5084293;28;20044;-58
2022/03/02 10:51:11;;;;;;;6.85;3.30;;;;;;;8.03;41.29;96954.13;5084313;28;20048;-59
2022/03/02 10:53:44;;;;;;;7.97;4.18;;;;;;;8.22;41.66;96984.56;5083377;28;20048;-59
2022/03/02 10:56:13;;;;;;;5.53;3.28;;;;;;;7.51;43.38;96979.91;5083956;28;20135;-59
2022/03/02 10:58:50;;;;;;;4.85;3.33;;;;;;;7.74;42.90;96974.63;5083216;28;20058;-58
2022/03/02 11:01:17;;;;;;;5.88;3.83;;;;;;;7.91;42.21;96979.81;5083515;28;20072;-58
2022/03/02 11:03:45;;;;;;;6.10;3.30;;;;;;;7.66;42.65;96970.09;5082292;28;20581;-58
2022/03/02 11:06:12;;;;;;;7.53;4.07;;;;;;;7.29;43.16;96952.94;5082057;28;20044;-60
2022/03/02 11:08:42;;;;;;;4.63;2.90;;;;;;;7.80;42.78;96912.56;5083884;28;20052;-58
2022/03/02 11:11:10;;;;;;;8.85;4.43;;;;;;;8.07;42.21;96961.31;5082676;28;20585;-57
2022/03/02 11:13:37;;;;;;;5.70;3.40;;;;;;;7.92;42.24;96892.38;5082291;28;20086;-58
2022/03/02 11:16:05;;;;;;;7.38;3.90;;;;;;;7.79;43.25;96933.03;5084120;28;20272;-58
2022/03/02 11:18:37;;;;;;;6.65;3.83;;;;;;;8.09;44.18;96947.16;5065451;28;20105;-57
2022/03/02 11:21:17;;;;;;;4.70;2.85;;;;;;;7.00;44.35;96898.19;5063290;28;20056;-57
2022/03/02 11:23:47;;;;;;;7.47;3.83;;;;;;;7.95;44.08;96935.78;5063575;28;20048;-58
2022/03/02 11:26:26;;;;;;;4.97;2.97;;;;;;;6.53;45.63;96941.22;5063475;28;20052;-58
2022/03/02 11:28:55;;;;;;;5.78;3.17;;;;;;;7.06;44.74;96918.84;5063449;28;20495;-58
2022/03/02 11:31:30;;;;;;;9.70;4.80;;;;;;;7.69;44.16;96920.56;5063244;28;20051;-61
2022/03/02 11:34:29;;;;;;;7.10;4.03;;;;;;;7.88;43.56;96924.56;5061431;28;20498;-59
2022/03/02 11:36:58;;;;;;;5.70;3.45;;;;;;;7.50;44.47;96925.97;5061371;28;20084;-59
2022/03/02 11:39:28;;;;;;;5.22;3.10;;;;;;;7.05;44.68;96925.47;5065648;28;20074;-60